Hauptseite
METAR-TAF:

METAR-TAF

Flughäfen :

Flughafen Groningen

Groningen, Niederlande

Breite: 53-08N, Länge: 006-35E, Höhe: 4 m

Beobachtung

Neuester Wetterbericht von vor 31 Minuten, um 18:55 UTC
Wind 11 kt aus Süd/Südwest
Temperatur 19°C
Luftfeuchtigkeit 68%
Luftdruck 1014 hPa
Sichtweite 10 km oder mehr

METAR: EHGG 191855Z AUTO 21011KT 9999 NSC 19/13 Q1014 TEMPO 21011G21KT

Zeit: 21:26 (19:26 UTC)

Prognose

Neuester Wetterbericht von vor 23 Minuten, um 19:03 UTC
Gültige Prognose vom 19 um 19 UTC bis 20 um 24 UTC
Wind 14 kt aus Süd/Südwest
Sichtweite 10 km oder mehr
keine Wolken unter 1500 m und keine Kumulonimbus oder Gewitterwolken
Übergehend zu
vom 20 um 08 UTC bis 20 um 10 UTC
Wind 15 kt aus Südwest, Böen bis zu 25 kt
Übergehend zu
vom 20 um 16 UTC bis 20 um 19 UTC
Wind 8 kt aus Süd

TAF: EHGG 191903Z 1919/2024 21014KT CAVOK BECMG 2008/2010 22015G25KT BECMG 2016/2019 19008KT

Wetterbeobachtungen und Prognosen von mehr als 4000 Flughäfen (METAR und TAF Bericht).

Die verfügbaren Stationen werden durch gelbe und rote Markierungen auf der Karte dargestellt.

Führen Sie die Maus auf sie, um den Namen der Station zu sehen.

Darauf klicken, um die Beobachtung von Wetterbeobachtungen und Prognosen zu sehen.

Um die Karte zu ändern : klicken Sie auf den grünen Tasten mit einem schwarzen Kreuz Zum Vergrößern, auf den grünen Button mit einem Gedankenstrich zu verkleinern, oder auf die grünen Pfeile für benachbarte Karten.


METAR-TAF: